Time;durP1;ratioP1;P1;durP2;ratioP2;P2;SDS_P1;SDS_P2;PMS_P1;PMS_P2;Temp;Humidity;BMP_temperature;BMP_pressure;BME280_temperature;BME280_humidity;BME280_pressure;Samples;Min_cycle;Max_cycle;Signal;HPM_P1;HPM_P2
2020/12/23 00:00:37;;;;;;;25.35;2.25;;;;;;;10.82;78.08;96583.75;4995043;28;20070;-67
2020/12/23 00:03:03;;;;;;;22.88;1.42;;;;;;;10.80;77.88;96585.16;4994419;28;20509;-67
2020/12/23 00:05:29;;;;;;;21.75;1.38;;;;;;;10.78;77.76;96581.97;4994781;28;20093;-67
2020/12/23 00:07:55;;;;;;;45.65;2.30;;;;;;;10.76;77.68;96579.56;4994785;28;20050;-67
2020/12/23 00:10:21;;;;;;;36.60;2.00;;;;;;;10.73;77.71;96576.66;4994160;28;20054;-67
2020/12/23 00:12:48;;;;;;;29.25;1.92;;;;;;;10.67;77.73;96579.50;5002935;28;20585;-67
2020/12/23 00:15:14;;;;;;;40.70;2.20;;;;;;;10.59;77.32;96577.53;5013491;28;20057;-67
2020/12/23 00:17:40;;;;;;;28.05;2.03;;;;;;;10.51;77.73;96564.69;5014225;28;20460;-67
2020/12/23 00:20:06;;;;;;;33.80;2.00;;;;;;;10.48;78.13;96557.13;5013735;28;20085;-67
2020/12/23 00:22:32;;;;;;;23.52;1.83;;;;;;;10.44;78.19;96564.34;5013843;28;20046;-67
2020/12/23 00:24:58;;;;;;;20.90;1.40;;;;;;;10.44;78.18;96567.06;5013940;28;20054;-67
2020/12/23 00:27:24;;;;;;;36.70;1.85;;;;;;;10.45;77.91;96566.75;5013445;28;20116;-67
2020/12/23 00:29:50;;;;;;;21.30;1.50;;;;;;;10.44;78.11;96556.97;5013911;28;20046;-67
2020/12/23 00:32:19;;;;;;;34.10;1.95;;;;;;;10.45;77.79;96563.22;5013476;28;20104;-67
2020/12/23 00:34:45;;;;;;;22.75;1.38;;;;;;;10.44;77.58;96562.44;5013781;28;20057;-67
2020/12/23 00:37:11;;;;;;;26.80;1.67;;;;;;;10.41;77.47;96554.06;5012709;28;20405;-67
2020/12/23 00:39:37;;;;;;;20.80;1.25;;;;;;;10.43;77.18;96552.63;5013785;28;20624;-67
2020/12/23 00:42:04;;;;;;;39.20;1.80;;;;;;;10.38;76.81;96551.94;5012739;28;20081;-67
2020/12/23 00:44:30;;;;;;;25.13;1.50;;;;;;;10.42;76.94;96558.38;5013427;28;20053;-67
2020/12/23 00:46:57;;;;;;;18.52;1.10;;;;;;;10.45;76.37;96547.69;5013530;28;20054;-67
2020/12/23 00:49:23;;;;;;;31.30;1.65;;;;;;;10.40;75.96;96541.56;5013194;28;20053;-66
2020/12/23 00:51:49;;;;;;;22.73;1.33;;;;;;;10.47;75.82;96539.19;5013660;28;20507;-67
2020/12/23 00:54:15;;;;;;;27.83;1.60;;;;;;;10.42;75.65;96536.59;5013075;28;20046;-67
2020/12/23 00:56:41;;;;;;;30.65;1.75;;;;;;;10.52;75.64;96547.25;5013339;28;20072;-67
2020/12/23 00:59:07;;;;;;;35.67;1.83;;;;;;;10.50;75.06;96541.31;5006255;28;20046;-67
2020/12/23 01:01:33;;;;;;;45.42;2.22;;;;;;;10.57;75.06;96541.66;4993658;28;20046;-66
2020/12/23 01:04:00;;;;;;;49.72;2.33;;;;;;;10.62;74.78;96538.81;4991482;28;20085;-67
2020/12/23 01:06:26;;;;;;;20.27;1.20;;;;;;;10.64;74.61;96539.28;4992417;28;20050;-67
2020/12/23 01:08:52;;;;;;;28.88;1.67;;;;;;;10.61;74.61;96545.38;4993428;28;20484;-67
2020/12/23 01:11:18;;;;;;;30.65;1.77;;;;;;;10.62;74.49;96543.44;4993023;28;20057;-67
2020/12/23 01:13:44;;;;;;;26.88;1.48;;;;;;;10.69;74.24;96547.31;5009958;28;20050;-67
2020/12/23 01:16:10;;;;;;;18.42;1.17;;;;;;;10.69;74.18;96539.13;5012238;28;20107;-67
2020/12/23 01:18:37;;;;;;;22.45;1.25;;;;;;;10.78;73.95;96541.09;5013005;28;20497;-67
2020/12/23 01:21:04;;;;;;;23.10;1.48;;;;;;;10.81;73.42;96548.66;5012564;28;20081;-68
2020/12/23 01:23:30;;;;;;;30.70;1.60;;;;;;;10.78;73.27;96543.84;5012757;28;20520;-67
2020/12/23 01:25:56;;;;;;;33.38;1.67;;;;;;;10.81;73.24;96545.94;5012877;28;20041;-67
2020/12/23 01:28:22;;;;;;;26.52;1.48;;;;;;;10.85;73.16;96553.16;5012441;28;20046;-67
2020/12/23 01:30:48;;;;;;;29.02;1.50;;;;;;;10.84;72.81;96550.75;5012701;28;20060;-68
2020/12/23 01:33:15;;;;;;;41.72;1.98;;;;;;;10.82;72.80;96551.06;5012314;28;20046;-68
2020/12/23 01:35:41;;;;;;;28.05;1.48;;;;;;;10.88;72.72;96549.00;5012747;28;20046;-68
2020/12/23 01:38:08;;;;;;;24.70;1.40;;;;;;;10.79;72.82;96539.97;5012148;28;20056;-68
2020/12/23 01:40:34;;;;;;;28.52;1.58;;;;;;;10.82;72.70;96547.53;5012679;28;20057;-67
2020/12/23 01:43:00;;;;;;;23.33;1.30;;;;;;;10.81;72.70;96543.22;5011923;28;20073;-68
2020/12/23 01:45:26;;;;;;;44.15;2.08;;;;;;;10.80;72.58;96547.03;4996616;28;20043;-67
2020/12/23 01:47:55;;;;;;;23.88;1.38;;;;;;;10.80;72.72;96541.59;4992602;28;20679;-67
2020/12/23 01:50:21;;;;;;;25.73;1.45;;;;;;;10.78;72.92;96543.84;4992436;28;20046;-67
2020/12/23 01:52:47;;;;;;;35.67;1.77;;;;;;;10.71;72.86;96544.28;4992517;28;20109;-67
2020/12/23 01:55:14;;;;;;;19.63;1.25;;;;;;;10.67;72.72;96544.09;4992219;28;20054;-67
2020/12/23 01:57:40;;;;;;;23.20;1.33;;;;;;;10.78;72.54;96538.38;4992512;28;20054;-67
2020/12/23 02:00:07;;;;;;;24.67;1.38;;;;;;;10.76;72.54;96537.91;4992189;28;20053;-67
2020/12/23 02:02:34;;;;;;;35.13;1.83;;;;;;;10.74;72.51;96537.41;4992391;28;20061;-67
2020/12/23 02:05:01;;;;;;;21.42;1.40;;;;;;;10.72;72.42;96540.44;4992537;28;20535;-67
2020/12/23 02:07:29;;;;;;;29.20;1.63;;;;;;;10.69;72.48;96536.41;4992300;28;20410;-68
2020/12/23 02:09:57;;;;;;;23.77;1.27;;;;;;;10.68;72.47;96532.09;4992784;28;20050;-68
2020/12/23 02:12:24;;;;;;;39.53;2.00;;;;;;;10.71;72.30;96538.84;4991895;28;20042;-67
2020/12/23 02:14:51;;;;;;;27.65;1.70;;;;;;;10.57;72.66;96544.38;4999602;28;20042;-67
2020/12/23 02:17:17;;;;;;;30.95;1.58;;;;;;;10.54;72.94;96538.75;5011551;28;20053;-68
2020/12/23 02:19:50;;;;;;;36.95;1.83;;;;;;;10.48;72.88;96535.34;5011878;28;20056;-68
2020/12/23 02:22:23;;;;;;;42.45;2.30;;;;;;;10.54;72.80;96545.00;5011537;28;20076;-67
2020/12/23 02:24:50;;;;;;;21.58;1.25;;;;;;;10.45;73.10;96536.00;5010993;28;20079;-67
2020/12/23 02:27:18;;;;;;;38.17;1.83;;;;;;;10.39;73.15;96545.41;5010914;28;20053;-67
2020/12/23 02:29:46;;;;;;;23.30;1.35;;;;;;;10.40;72.86;96539.66;5010684;28;20045;-67
2020/12/23 02:32:12;;;;;;;43.72;2.08;;;;;;;10.39;73.12;96535.34;5010909;28;20515;-67
2020/12/23 02:34:38;;;;;;;13.85;1.05;;;;;;;10.42;72.76;96537.41;5011730;28;20548;-68
2020/12/23 02:37:06;;;;;;;30.70;1.60;;;;;;;10.42;72.67;96531.16;5010998;28;20042;-68
2020/12/23 02:39:33;;;;;;;44.75;2.22;;;;;;;10.41;72.77;96524.13;5011666;28;20606;-68
2020/12/23 02:42:01;;;;;;;39.83;1.92;;;;;;;10.39;72.64;96523.66;5011481;28;20049;-67
2020/12/23 02:44:27;;;;;;;47.97;2.42;;;;;;;10.33;72.80;96517.50;5010750;28;20046;-67
2020/12/23 02:46:57;;;;;;;18.55;1.38;;;;;;;10.31;73.12;96516.22;5011554;28;20058;-67
2020/12/23 02:49:23;;;;;;;47.17;2.25;;;;;;;10.26;72.91;96517.16;5010967;28;20501;-67
2020/12/23 02:51:50;;;;;;;51.97;2.53;;;;;;;10.19;72.84;96516.78;5010661;28;20528;-67
2020/12/23 02:54:16;;;;;;;23.33;1.25;;;;;;;10.10;73.09;96514.00;5010908;28;20413;-67
2020/12/23 02:56:42;;;;;;;23.40;1.35;;;;;;;10.04;73.48;96511.72;5011305;28;20049;-67
2020/12/23 02:59:09;;;;;;;14.07;1.17;;;;;;;9.97;73.81;96512.16;5010796;28;20052;-68
2020/12/23 03:01:35;;;;;;;43.60;2.20;;;;;;;9.92;74.26;96504.13;5011332;28;20046;-68
2020/12/23 03:04:01;;;;;;;30.30;1.65;;;;;;;9.88;74.28;96512.09;5010935;28;20053;-69
2020/12/23 03:06:27;;;;;;;32.08;1.80;;;;;;;9.86;75.03;96497.19;5011397;28;20049;-67
2020/12/23 03:08:54;;;;;;;23.73;1.33;;;;;;;9.89;75.03;96496.56;5011242;28;20054;-67
2020/12/23 03:11:20;;;;;;;25.80;2.05;;;;;;;9.92;75.14;96494.03;5010685;28;20061;-68
2020/12/23 03:13:46;;;;;;;24.52;1.52;;;;;;;9.95;75.07;96489.88;5011153;28;20065;-67
2020/12/23 03:16:12;;;;;;;28.92;1.55;;;;;;;9.99;74.45;96490.88;5009851;28;20054;-67
2020/12/23 03:18:39;;;;;;;20.52;1.23;;;;;;;10.02;74.23;96495.69;5010972;28;20522;-67
2020/12/23 03:21:05;;;;;;;21.73;1.40;;;;;;;10.07;74.04;96486.59;5010817;28;20053;-68
2020/12/23 03:23:31;;;;;;;23.05;1.25;;;;;;;10.06;73.67;96491.22;5010577;28;20556;-67
2020/12/23 03:25:57;;;;;;;16.25;1.10;;;;;;;10.14;73.60;96485.03;5010551;28;20046;-67
2020/12/23 03:28:23;;;;;;;22.10;1.30;;;;;;;10.29;73.24;96474.91;5013987;28;20080;-67
2020/12/23 03:30:49;;;;;;;29.27;1.70;;;;;;;10.33;73.02;96476.66;5015116;28;20136;-67
2020/12/23 03:33:16;;;;;;;30.45;1.65;;;;;;;10.40;73.05;96468.88;5014364;28;20088;-67
2020/12/23 03:35:42;;;;;;;22.67;1.40;;;;;;;10.45;72.64;96467.94;5014983;28;20395;-68
2020/12/23 03:38:08;;;;;;;29.33;1.50;;;;;;;10.47;72.36;96462.16;5014286;28;20048;-68
2020/12/23 03:40:34;;;;;;;24.73;1.33;;;;;;;10.47;72.03;96468.41;5014603;28;20125;-68
2020/12/23 03:43:00;;;;;;;20.92;1.25;;;;;;;10.47;72.26;96473.84;5015010;28;20077;-67
2020/12/23 03:45:27;;;;;;;21.90;1.40;;;;;;;10.48;72.00;96463.78;5013603;28;20060;-68
2020/12/23 03:47:53;;;;;;;20.98;1.25;;;;;;;10.46;71.95;96469.53;5014623;28;20053;-67
2020/12/23 03:50:20;;;;;;;27.38;1.40;;;;;;;10.45;71.59;96470.66;5014347;28;20050;-68
2020/12/23 03:52:46;;;;;;;21.08;1.30;;;;;;;10.45;72.00;96465.22;5014496;28;20053;-68
2020/12/23 03:55:12;;;;;;;14.43;1.08;;;;;;;10.42;72.08;96466.63;5013834;28;20046;-68
2020/12/23 03:57:38;;;;;;;27.63;1.50;;;;;;;10.40;72.24;96473.53;5014429;28;20436;-67
2020/12/23 04:00:06;;;;;;;30.80;1.65;;;;;;;10.40;72.05;96470.81;5014108;28;20049;-68
2020/12/23 04:02:32;;;;;;;26.27;1.30;;;;;;;10.40;71.94;96459.91;5014335;28;20053;-67
2020/12/23 04:04:58;;;;;;;23.73;1.40;;;;;;;10.35;71.98;96455.41;5014352;28;20042;-67
2020/12/23 04:07:26;;;;;;;39.15;1.95;;;;;;;10.38;71.77;96453.97;5013949;28;20057;-67
2020/12/23 04:09:52;;;;;;;16.50;1.15;;;;;;;10.36;71.36;96461.66;5014263;28;20050;-68
2020/12/23 04:12:18;;;;;;;26.15;1.52;;;;;;;10.37;71.63;96460.53;5013935;28;20046;-67
2020/12/23 04:14:44;;;;;;;18.30;1.13;;;;;;;10.42;71.59;96465.84;5013557;28;20054;-67
2020/12/23 04:17:10;;;;;;;21.60;1.23;;;;;;;10.42;71.30;96461.19;5013482;28;20054;-68
2020/12/23 04:19:36;;;;;;;21.65;1.17;;;;;;;10.42;71.52;96460.38;5014191;28;20084;-68
2020/12/23 04:22:02;;;;;;;21.95;1.45;;;;;;;10.43;71.71;96456.53;5013582;28;20132;-69
2020/12/23 04:24:29;;;;;;;35.13;1.70;;;;;;;10.42;71.64;96454.94;5013990;28;20056;-68
2020/12/23 04:26:55;;;;;;;36.75;1.80;;;;;;;10.45;71.48;96454.31;5014074;28;20174;-68
2020/12/23 04:29:21;;;;;;;28.67;1.52;;;;;;;10.45;71.63;96457.06;5013582;28;21123;-68
2020/12/23 04:31:47;;;;;;;29.05;1.50;;;;;;;10.46;71.26;96455.94;5014000;28;20042;-68
2020/12/23 04:34:13;;;;;;;25.90;1.50;;;;;;;10.48;71.44;96453.69;5012591;28;20520;-68
2020/12/23 04:36:40;;;;;;;20.35;1.15;;;;;;;10.50;71.48;96454.19;5013780;28;20050;-67
2020/12/23 04:39:06;;;;;;;21.13;1.20;;;;;;;10.49;71.13;96449.84;5013396;28;20069;-68
2020/12/23 04:41:34;;;;;;;30.45;1.50;;;;;;;10.46;70.94;96447.75;5013615;28;20046;-67
2020/12/23 04:44:01;;;;;;;35.90;1.75;;;;;;;10.39;71.01;96439.25;5012999;28;20111;-67
2020/12/23 04:46:31;;;;;;;33.50;1.63;;;;;;;10.44;71.15;96436.41;5013147;28;20034;-67
2020/12/23 04:48:58;;;;;;;29.33;1.63;;;;;;;10.44;71.26;96439.91;5013661;28;20796;-67
2020/12/23 04:51:29;;;;;;;27.98;1.52;;;;;;;10.46;70.75;96439.59;5013048;28;20429;-67
2020/12/23 04:53:55;;;;;;;25.27;1.35;;;;;;;10.47;71.20;96446.63;5013517;28;20501;-67
2020/12/23 04:56:21;;;;;;;28.20;1.60;;;;;;;10.45;71.25;96446.16;5012869;28;20046;-67
2020/12/23 04:58:48;;;;;;;27.92;1.48;;;;;;;10.45;70.91;96446.97;5013638;28;20057;-67
2020/12/23 05:01:14;;;;;;;14.98;1.02;;;;;;;10.43;70.79;96435.56;5012055;28;20572;-68
2020/12/23 05:03:40;;;;;;;18.63;1.15;;;;;;;10.46;70.74;96434.16;5013105;28;20135;-67
2020/12/23 05:06:07;;;;;;;17.98;1.27;;;;;;;10.46;71.02;96434.16;5012797;28;20053;-68
2020/12/23 05:08:34;;;;;;;28.73;1.65;;;;;;;10.48;71.05;96431.91;5013155;28;20042;-68
2020/12/23 05:11:06;;;;;;;15.73;1.15;;;;;;;10.47;70.86;96435.75;5013200;28;20061;-68
2020/12/23 05:13:32;;;;;;;10.85;0.93;;;;;;;10.41;71.13;96428.84;5013040;28;20061;-67
2020/12/23 05:15:59;;;;;;;29.02;1.55;;;;;;;10.40;71.16;96424.53;4996159;28;20073;-68
2020/12/23 05:18:31;;;;;;;19.15;1.60;;;;;;;10.38;71.37;96427.53;4993018;28;20042;-67
2020/12/23 05:20:57;;;;;;;34.80;1.88;;;;;;;10.37;71.31;96425.13;4993536;28;20218;-68
2020/12/23 05:23:24;;;;;;;27.48;1.55;;;;;;;10.39;71.58;96422.94;4992979;28;20521;-68
2020/12/23 05:25:50;;;;;;;29.88;1.58;;;;;;;10.37;71.63;96412.31;4993352;28;20520;-68
2020/12/23 05:28:16;;;;;;;39.22;2.38;;;;;;;10.36;71.55;96404.47;4993019;28;20101;-68
2020/12/23 05:30:42;;;;;;;15.77;1.05;;;;;;;10.37;71.40;96408.81;4996791;28;20050;-68
2020/12/23 05:33:10;;;;;;;13.20;1.17;;;;;;;10.36;71.71;96412.66;5012272;28;20052;-68
2020/12/23 05:35:37;;;;;;;27.00;1.70;;;;;;;10.37;71.50;96419.69;5012683;28;20046;-68
2020/12/23 05:38:03;;;;;;;33.22;1.85;;;;;;;10.37;71.58;96415.06;5011923;28;20073;-68
2020/12/23 05:40:29;;;;;;;24.80;1.70;;;;;;;10.39;71.31;96422.94;5012247;28;20053;-68
2020/12/23 05:42:57;;;;;;;33.97;1.98;;;;;;;10.39;71.62;96418.28;4995055;28;20042;-68
2020/12/23 05:45:25;;;;;;;33.80;1.98;;;;;;;10.41;71.38;96415.22;5011396;28;20037;-68
2020/12/23 05:47:52;;;;;;;22.65;1.45;;;;;;;10.41;71.24;96410.59;5012308;28;20046;-68
2020/12/23 05:50:20;;;;;;;30.35;1.80;;;;;;;10.42;71.19;96416.84;5011738;28;20061;-68
2020/12/23 05:52:46;;;;;;;16.15;1.30;;;;;;;10.43;71.26;96413.00;5012413;28;20100;-68
2020/12/23 05:55:16;;;;;;;23.85;1.55;;;;;;;10.45;71.26;96418.94;5011638;28;20053;-68
2020/12/23 05:57:42;;;;;;;25.13;2.15;;;;;;;10.43;71.24;96421.16;5012246;28;20052;-68
2020/12/23 06:00:09;;;;;;;25.33;1.75;;;;;;;10.40;71.45;96413.63;5011755;28;20050;-68
2020/12/23 06:02:45;;;;;;;30.00;2.00;;;;;;;10.39;71.82;96403.88;5012302;28;20050;-68
2020/12/23 06:05:14;;;;;;;27.13;1.80;;;;;;;10.36;71.90;96408.00;5011699;28;20050;-68
2020/12/23 06:07:48;;;;;;;32.22;2.15;;;;;;;10.37;71.76;96411.53;5011866;28;20053;-68
2020/12/23 06:10:14;;;;;;;33.08;2.17;;;;;;;10.39;71.65;96409.31;5011679;28;20120;-68
2020/12/23 06:12:47;;;;;;;28.73;1.85;;;;;;;10.38;71.61;96405.75;5011933;28;20053;-68
2020/12/23 06:15:17;;;;;;;30.50;2.55;;;;;;;10.38;71.54;96416.66;5010848;28;20042;-68
2020/12/23 06:17:45;;;;;;;38.83;7.78;;;;;;;10.41;71.51;96415.22;5012053;28;20057;-68
2020/12/23 06:20:11;;;;;;;27.63;2.42;;;;;;;10.42;71.50;96411.38;5011414;28;20120;-68
2020/12/23 06:22:41;;;;;;;21.77;1.48;;;;;;;10.42;71.41;96403.22;5011839;28;20126;-68
2020/12/23 06:25:08;;;;;;;29.35;1.70;;;;;;;10.41;71.06;96415.22;5011213;28;20054;-69
2020/12/23 06:27:34;;;;;;;29.17;1.60;;;;;;;10.45;70.78;96410.78;5011760;28;20061;-68
2020/12/23 06:30:00;;;;;;;29.05;1.58;;;;;;;10.45;70.60;96387.06;5011738;28;20050;-68
2020/12/23 06:32:27;;;;;;;31.08;1.70;;;;;;;10.47;70.33;96391.38;5011391;28;20096;-68
2020/12/23 06:34:55;;;;;;;20.35;1.48;;;;;;;10.46;70.22;96404.19;5011853;28;20504;-67
2020/12/23 06:37:23;;;;;;;30.73;1.60;;;;;;;10.48;69.81;96401.94;5011193;28;20050;-68
2020/12/23 06:39:50;;;;;;;24.83;1.42;;;;;;;10.38;70.06;96400.31;5011516;28;20052;-68
2020/12/23 06:42:28;;;;;;;37.20;1.95;;;;;;;10.54;69.65;96406.13;5011034;28;20096;-68
2020/12/23 06:44:57;;;;;;;24.52;1.42;;;;;;;10.58;69.24;96404.38;5010884;28;20053;-68
2020/12/23 06:47:25;;;;;;;31.27;1.63;;;;;;;10.66;68.94;96408.25;5011051;28;20512;-67
2020/12/23 06:49:53;;;;;;;25.25;1.38;;;;;;;10.56;69.28;96412.06;5011601;28;20049;-68
2020/12/23 06:52:30;;;;;;;29.08;1.60;;;;;;;10.54;69.74;96414.28;5011221;28;20050;-68
2020/12/23 06:54:57;;;;;;;24.02;1.35;;;;;;;10.48;69.66;96410.13;5011471;28;20133;-68
2020/12/23 06:57:56;;;;;;;30.92;1.67;;;;;;;10.51;69.87;96403.25;5010874;28;20042;-68
2020/12/23 07:00:39;;;;;;;37.90;2.03;;;;;;;10.54;69.56;96408.06;5010782;28;20497;-68
2020/12/23 07:03:10;;;;;;;25.42;1.50;;;;;;;10.57;69.77;96405.50;5010446;28;20050;-68
2020/12/23 07:05:39;;;;;;;24.70;1.50;;;;;;;10.62;69.21;96394.47;5011532;28;20071;-68
2020/12/23 07:08:07;;;;;;;32.65;1.60;;;;;;;10.59;69.04;96402.47;5010902;28;20045;-68
2020/12/23 07:10:34;;;;;;;29.92;1.75;;;;;;;10.56;69.52;96406.63;5011117;28;20045;-70
2020/12/23 07:13:03;;;;;;;16.98;1.23;;;;;;;10.54;69.72;96403.41;5011172;28;20053;-67
2020/12/23 07:15:31;;;;;;;22.13;1.27;;;;;;;10.52;69.48;96400.22;5010145;28;20042;-67
2020/12/23 07:18:01;;;;;;;23.33;1.48;;;;;;;10.53;69.66;96411.91;5011168;28;20057;-67
2020/12/23 07:20:30;;;;;;;30.98;1.60;;;;;;;10.53;69.87;96412.69;5011109;28;20426;-68
2020/12/23 07:23:06;;;;;;;18.05;1.58;;;;;;;10.47;69.68;96403.06;5010976;28;20049;-67
2020/12/23 07:25:38;;;;;;;20.98;1.95;;;;;;;10.52;69.67;96405.66;5010938;28;20038;-67
2020/12/23 07:28:08;;;;;;;26.02;2.13;;;;;;;10.51;69.78;96397.81;5010574;28;20135;-68
2020/12/23 07:30:36;;;;;;;36.55;2.63;;;;;;;10.52;69.35;96400.22;5011009;28;20103;-67
2020/12/23 07:33:06;;;;;;;15.15;1.75;;;;;;;10.60;69.22;96406.81;5010338;28;20539;-68
2020/12/23 07:35:33;;;;;;;20.52;1.95;;;;;;;10.61;69.45;96409.22;5010836;28;20046;-67
2020/12/23 07:38:01;;;;;;;26.95;1.67;;;;;;;10.70;68.86;96401.03;5011180;28;20050;-67
2020/12/23 07:40:28;;;;;;;45.38;2.63;;;;;;;10.75;68.75;96402.81;5010573;28;20046;-67
2020/12/23 07:42:56;;;;;;;31.08;1.85;;;;;;;10.80;68.52;96405.38;5010966;28;20085;-67
2020/12/23 07:45:24;;;;;;;29.17;1.75;;;;;;;10.81;68.03;96401.56;4998202;28;20054;-67
2020/12/23 07:47:55;;;;;;;33.63;1.80;;;;;;;10.75;68.05;96413.72;4991079;28;20050;-67
2020/12/23 07:50:22;;;;;;;36.28;1.80;;;;;;;10.69;68.57;96405.69;4990067;28;21482;-69
2020/12/23 07:52:48;;;;;;;27.60;1.88;;;;;;;10.68;68.42;96398.63;4991586;28;20097;-69
2020/12/23 07:55:15;;;;;;;42.30;2.28;;;;;;;10.76;68.87;96404.44;4990689;28;20056;-70
2020/12/23 07:57:42;;;;;;;24.83;1.58;;;;;;;10.80;68.37;96397.22;4991166;28;20050;-69
2020/12/23 08:00:10;;;;;;;19.52;1.33;;;;;;;10.77;68.38;96397.88;4990974;28;20054;-69
2020/12/23 08:02:37;;;;;;;27.85;1.65;;;;;;;10.70;68.31;96393.69;4991126;28;20043;-69
2020/12/23 08:05:03;;;;;;;16.40;1.20;;;;;;;10.76;68.12;96393.56;4990944;28;20064;-70
2020/12/23 08:07:29;;;;;;;32.13;1.92;;;;;;;10.83;68.05;96399.31;4991312;28;20050;-69
2020/12/23 08:09:55;;;;;;;20.35;1.27;;;;;;;10.90;67.87;96407.81;4991391;28;20498;-69
2020/12/23 08:12:22;;;;;;;24.98;1.48;;;;;;;10.87;67.94;96394.84;4991069;28;20121;-69
2020/12/23 08:14:48;;;;;;;28.42;1.88;;;;;;;10.80;68.29;96394.50;5001374;28;20054;-69
2020/12/23 08:17:21;;;;;;;33.95;1.70;;;;;;;10.78;68.93;96402.19;5013956;28;20082;-69
2020/12/23 08:20:01;;;;;;;19.88;1.10;;;;;;;10.58;69.47;96398.94;5014423;28;20409;-69
2020/12/23 08:22:27;;;;;;;25.42;1.40;;;;;;;10.51;70.08;96398.59;5014231;28;20053;-68
2020/12/23 08:25:00;;;;;;;23.92;1.27;;;;;;;10.50;70.30;96407.91;5014067;28;20054;-68
2020/12/23 08:27:27;;;;;;;20.77;1.25;;;;;;;10.53;69.81;96401.81;5013626;28;20590;-67
2020/12/23 08:29:53;;;;;;;38.10;1.88;;;;;;;10.54;69.32;96408.06;5013852;28;20057;-69
2020/12/23 08:32:25;;;;;;;19.23;1.27;;;;;;;10.56;69.79;96401.19;5013574;28;20054;-69
2020/12/23 08:34:53;;;;;;;34.80;2.22;;;;;;;10.67;69.15;96407.94;5013891;28;20058;-69
2020/12/23 08:37:23;;;;;;;24.23;1.63;;;;;;;10.73;69.43;96405.06;5013596;28;20046;-69
2020/12/23 08:39:56;;;;;;;17.05;1.25;;;;;;;10.61;70.27;96402.97;5013684;28;20151;-68
2020/12/23 08:42:22;;;;;;;50.88;2.38;;;;;;;10.41;71.43;96409.78;5013192;28;20468;-68
2020/12/23 08:44:50;;;;;;;8.52;0.95;;;;;;;10.33;71.93;96402.38;5012767;28;20050;-69
2020/12/23 08:47:27;;;;;;;27.27;1.52;;;;;;;10.29;71.68;96395.97;5013255;28;20049;-68
2020/12/23 08:49:59;;;;;;;24.05;1.75;;;;;;;10.39;71.61;96395.69;5013530;28;20049;-69
2020/12/23 08:52:26;;;;;;;27.27;1.52;;;;;;;10.42;71.28;96395.84;5013330;28;20046;-69
2020/12/23 08:54:52;;;;;;;24.67;1.55;;;;;;;10.48;70.90;96401.16;5013619;28;20046;-68
2020/12/23 08:57:28;;;;;;;27.27;1.77;;;;;;;10.54;70.78;96389.00;5012867;28;20065;-68
2020/12/23 08:59:55;;;;;;;17.73;1.38;;;;;;;10.57;71.21;96385.66;5013696;28;20057;-68
2020/12/23 09:02:22;;;;;;;33.15;2.00;;;;;;;10.53;71.95;96390.91;5013496;28;20050;-69
2020/12/23 09:04:49;;;;;;;32.42;1.83;;;;;;;10.52;72.13;96381.16;5013279;28;20053;-69
2020/12/23 09:07:21;;;;;;;34.38;1.85;;;;;;;10.50;71.64;96380.69;5012865;28;20053;-70
2020/12/23 09:09:48;;;;;;;25.92;1.67;;;;;;;10.52;71.57;96383.06;5013542;28;20057;-69
2020/12/23 09:12:21;;;;;;;16.63;1.20;;;;;;;10.61;71.44;96384.69;5012876;28;20054;-69
2020/12/23 09:14:47;;;;;;;38.13;2.05;;;;;;;10.70;70.69;96390.16;5012643;28;20053;-69
2020/12/23 09:17:21;;;;;;;28.02;1.77;;;;;;;10.83;70.26;96393.88;5012771;28;20050;-70
2020/12/23 09:19:53;;;;;;;28.13;1.90;;;;;;;10.88;70.33;96391.00;5013364;28;20054;-70
2020/12/23 09:22:35;;;;;;;26.13;1.70;;;;;;;10.79;71.05;96395.63;5012647;28;20046;-73
2020/12/23 09:25:12;;;;;;;27.27;1.48;;;;;;;10.66;71.55;96391.94;5012142;28;20150;-70
2020/12/23 09:27:38;;;;;;;16.73;1.10;;;;;;;10.45;72.97;96399.88;5012548;28;20046;-71
2020/12/23 09:30:05;;;;;;;20.67;1.40;;;;;;;10.35;74.03;96389.28;5012426;28;20046;-72
2020/12/23 09:32:31;;;;;;;23.73;1.50;;;;;;;10.26;74.43;96394.69;5013023;28;20049;-71
2020/12/23 09:35:12;;;;;;;20.48;1.75;;;;;;;10.20;75.41;96385.03;5012917;28;20497;-68
2020/12/23 09:37:39;;;;;;;5.43;1.20;;;;;;;10.19;76.30;96378.00;5012414;28;20046;-71
2020/12/23 09:40:06;;;;;;;59.88;3.20;;;;;;;10.11;76.09;96374.09;5011166;28;20053;-70
2020/12/23 09:42:33;;;;;;;18.35;1.50;;;;;;;10.11;76.92;96368.66;5012756;28;20049;-68
2020/12/23 09:44:59;;;;;;;8.68;1.20;;;;;;;10.07;77.04;96372.31;5012190;28;20383;-69
2020/12/23 09:47:25;;;;;;;17.80;1.52;;;;;;;10.05;77.37;96363.69;5011904;28;20164;-69
2020/12/23 09:49:51;;;;;;;20.70;1.67;;;;;;;10.07;76.24;96375.03;5012720;28;20134;-69
2020/12/23 09:52:17;;;;;;;17.65;1.40;;;;;;;10.06;76.79;96366.06;5011906;28;20045;-71
2020/12/23 09:54:44;;;;;;;19.52;1.30;;;;;;;10.01;76.47;96363.50;5012753;28;20539;-70
2020/12/23 09:57:10;;;;;;;19.63;1.45;;;;;;;10.00;76.81;96363.81;5011877;28;20046;-71
2020/12/23 09:59:36;;;;;;;30.92;1.95;;;;;;;9.93;76.66;96369.72;5012441;28;20414;-72
2020/12/23 10:02:02;;;;;;;20.33;1.45;;;;;;;9.90;77.50;96362.16;5012057;28;20133;-70
2020/12/23 10:04:28;;;;;;;25.92;2.17;;;;;;;9.89;78.22;96355.13;5012321;28;20046;-70
2020/12/23 10:06:54;;;;;;;26.38;2.13;;;;;;;9.92;78.23;96360.75;5012021;28;20096;-69
2020/12/23 10:09:20;;;;;;;24.83;1.88;;;;;;;9.94;78.38;96357.72;5011174;28;20072;-70
2020/12/23 10:11:47;;;;;;;21.20;1.83;;;;;;;9.93;78.53;96347.97;5012150;28;20557;-70
2020/12/23 10:14:13;;;;;;;63.17;3.28;;;;;;;9.92;77.93;96339.00;5010615;28;20505;-68
2020/12/23 10:16:39;;;;;;;20.90;1.70;;;;;;;9.94;77.58;96331.31;5011955;28;20074;-70
2020/12/23 10:19:05;;;;;;;30.80;2.00;;;;;;;9.93;77.02;96337.06;5011736;28;20486;-70
2020/12/23 10:21:31;;;;;;;23.55;1.83;;;;;;;10.00;77.25;96334.69;5012265;28;20474;-70
2020/12/23 10:23:56;;;;;;;28.40;1.70;;;;;;;10.17;74.65;96326.56;5012076;28;20137;-69
2020/12/23 10:26:22;;;;;;;28.42;1.83;;;;;;;10.40;74.58;96315.63;5011228;28;20107;-70
2020/12/23 10:28:49;;;;;;;11.27;1.45;;;;;;;10.60;73.68;96320.47;5011865;28;20693;-69
2020/12/23 10:31:15;;;;;;;23.92;1.60;;;;;;;10.66;73.63;96313.75;5011386;28;20521;-70
2020/12/23 10:33:41;;;;;;;20.38;1.48;;;;;;;10.54;74.05;96308.09;5003701;28;20076;-70
2020/12/23 10:36:09;;;;;;;25.30;1.80;;;;;;;10.44;74.72;96317.41;5010995;28;20513;-70
2020/12/23 10:38:35;;;;;;;15.60;1.38;;;;;;;10.41;75.07;96311.78;5011856;28;20450;-70
2020/12/23 10:41:01;;;;;;;28.25;2.00;;;;;;;10.41;76.29;96307.16;5011036;28;20452;-72
2020/12/23 10:43:27;;;;;;;21.80;1.48;;;;;;;10.33;75.26;96299.75;5011887;28;20042;-70
2020/12/23 10:45:54;;;;;;;29.63;1.98;;;;;;;10.32;74.74;96297.34;5010865;28;20195;-69
2020/12/23 10:48:20;;;;;;;24.50;1.60;;;;;;;10.36;75.36;96298.34;5010902;28;20042;-70
2020/12/23 10:50:46;;;;;;;23.02;1.50;;;;;;;10.44;74.51;96292.13;5011507;28;20049;-69
2020/12/23 10:53:12;;;;;;;35.67;2.22;;;;;;;10.50;74.12;96282.66;5010883;28;20505;-69
2020/12/23 10:55:38;;;;;;;35.55;2.25;;;;;;;10.58;74.68;96283.78;5009258;28;20089;-69
2020/12/23 10:58:04;;;;;;;28.63;1.75;;;;;;;10.62;74.52;96282.03;5010990;28;20424;-69
2020/12/23 11:00:30;;;;;;;22.50;2.05;;;;;;;10.68;74.13;96278.81;5011122;28;20042;-69
2020/12/23 11:02:57;;;;;;;32.70;2.47;;;;;;;10.75;73.81;96272.09;5011500;28;20488;-69
2020/12/23 11:05:23;;;;;;;28.88;2.33;;;;;;;10.84;73.96;96275.63;5010400;28;20053;-70
2020/12/23 11:07:51;;;;;;;29.95;2.03;;;;;;;10.89;72.38;96267.28;5011559;28;20054;-69
2020/12/23 11:10:17;;;;;;;27.45;2.20;;;;;;;10.93;72.27;96263.59;5009993;28;20042;-70
2020/12/23 11:12:43;;;;;;;14.93;1.75;;;;;;;11.00;72.78;96262.28;5011300;28;20050;-69
2020/12/23 11:15:09;;;;;;;23.42;1.88;;;;;;;11.05;71.69;96260.19;5009473;28;20046;-69
2020/12/23 11:17:35;;;;;;;22.55;1.70;;;;;;;11.18;71.34;96264.69;5010966;28;20052;-70
2020/12/23 11:20:02;;;;;;;29.17;1.95;;;;;;;11.32;70.86;96263.69;5010673;28;20065;-69
2020/12/23 11:22:28;;;;;;;23.42;1.60;;;;;;;11.36;70.70;96264.63;5010769;28;20054;-69
2020/12/23 11:24:54;;;;;;;33.15;2.10;;;;;;;11.37;71.15;96267.03;5010611;28;20050;-69
2020/12/23 11:27:20;;;;;;;39.42;2.92;;;;;;;11.38;71.17;96257.75;5009468;28;20547;-68